sensor_id;sensor_type;location;lat;lon;timestamp;pressure;altitude;pressure_sealevel;temperature;humidity
13553;BME280;6847;48.830;9.116;2023-01-15T00:02:05;96746.28;;;13.76;58.34
13553;BME280;6847;48.830;9.116;2023-01-15T00:04:33;96730.44;;;13.78;58.18
13553;BME280;6847;48.830;9.116;2023-01-15T00:07:02;96726.59;;;13.79;58.23
13553;BME280;6847;48.830;9.116;2023-01-15T00:09:30;96717.31;;;13.80;58.71
13553;BME280;6847;48.830;9.116;2023-01-15T00:11:57;96690.53;;;13.52;58.39
13553;BME280;6847;48.830;9.116;2023-01-15T00:14:23;96709.38;;;13.57;58.75
13553;BME280;6847;48.830;9.116;2023-01-15T00:16:51;96641.53;;;13.06;58.76
13553;BME280;6847;48.830;9.116;2023-01-15T00:19:22;96719.03;;;13.46;59.50
13553;BME280;6847;48.830;9.116;2023-01-15T00:21:48;96696.19;;;13.39;59.19
13553;BME280;6847;48.830;9.116;2023-01-15T00:24:16;96699.81;;;13.51;59.68
13553;BME280;6847;48.830;9.116;2023-01-15T00:27:01;96619.97;;;13.09;59.13
13553;BME280;6847;48.830;9.116;2023-01-15T00:29:45;96591.84;;;13.05;59.24
13553;BME280;6847;48.830;9.116;2023-01-15T00:32:12;96594.56;;;13.14;59.17
13553;BME280;6847;48.830;9.116;2023-01-15T00:34:40;96612.59;;;13.27;59.17
13553;BME280;6847;48.830;9.116;2023-01-15T00:37:09;96676.97;;;13.82;59.27
13553;BME280;6847;48.830;9.116;2023-01-15T00:39:36;96671.81;;;13.89;58.96
13553;BME280;6847;48.830;9.116;2023-01-15T00:42:03;96565.53;;;13.35;58.75
13553;BME280;6847;48.830;9.116;2023-01-15T00:44:31;96648.56;;;14.00;58.96
13553;BME280;6847;48.830;9.116;2023-01-15T00:46:58;96653.81;;;14.05;58.83
13553;BME280;6847;48.830;9.116;2023-01-15T00:49:25;96632.88;;;13.97;59.02
13553;BME280;6847;48.830;9.116;2023-01-15T00:51:53;96651.81;;;14.14;58.97
13553;BME280;6847;48.830;9.116;2023-01-15T00:54:20;96312.25;;;12.12;58.81
13553;BME280;6847;48.830;9.116;2023-01-15T00:56:48;96467.66;;;13.14;58.71
13553;BME280;6847;48.830;9.116;2023-01-15T00:59:15;96454.34;;;13.13;58.78
13553;BME280;6847;48.830;9.116;2023-01-15T01:01:42;96557.91;;;13.87;58.79
13553;BME280;6847;48.830;9.116;2023-01-15T01:04:10;96584.00;;;14.09;58.59
13553;BME280;6847;48.830;9.116;2023-01-15T01:06:40;96621.97;;;14.26;58.93
13553;BME280;6847;48.830;9.116;2023-01-15T01:09:09;96603.31;;;14.16;58.76
13553;BME280;6847;48.830;9.116;2023-01-15T01:11:37;96580.16;;;14.10;58.78
13553;BME280;6847;48.830;9.116;2023-01-15T01:14:04;96604.50;;;14.27;58.74
13553;BME280;6847;48.830;9.116;2023-01-15T01:16:32;96539.38;;;13.81;58.61
13553;BME280;6847;48.830;9.116;2023-01-15T01:19:03;96609.06;;;14.35;58.98
13553;BME280;6847;48.830;9.116;2023-01-15T01:21:30;96619.78;;;14.40;58.64
13553;BME280;6847;48.830;9.116;2023-01-15T01:23:57;96619.00;;;14.40;58.59
13553;BME280;6847;48.830;9.116;2023-01-15T01:26:27;96611.63;;;14.40;58.55
13553;BME280;6847;48.830;9.116;2023-01-15T01:28:55;96608.72;;;14.46;58.56
13553;BME280;6847;48.830;9.116;2023-01-15T01:31:22;96608.84;;;14.49;58.54
13553;BME280;6847;48.830;9.116;2023-01-15T01:33:50;96615.22;;;14.53;58.39
13553;BME280;6847;48.830;9.116;2023-01-15T01:36:26;96603.19;;;14.54;58.79
13553;BME280;6847;48.830;9.116;2023-01-15T01:38:53;96494.44;;;13.75;58.18
13553;BME280;6847;48.830;9.116;2023-01-15T01:41:24;96539.75;;;14.12;58.40
13553;BME280;6847;48.830;9.116;2023-01-15T01:43:55;96603.97;;;14.55;58.64
13553;BME280;6847;48.830;9.116;2023-01-15T01:46:22;96595.81;;;14.55;58.41
13553;BME280;6847;48.830;9.116;2023-01-15T01:48:51;96586.25;;;14.49;58.44
13553;BME280;6847;48.830;9.116;2023-01-15T01:51:21;96609.22;;;14.60;58.33
13553;BME280;6847;48.830;9.116;2023-01-15T01:53:51;96589.81;;;14.61;58.39
13553;BME280;6847;48.830;9.116;2023-01-15T01:56:18;96584.50;;;14.65;58.41
13553;BME280;6847;48.830;9.116;2023-01-15T01:58:47;96580.66;;;14.66;58.44
13553;BME280;6847;48.830;9.116;2023-01-15T02:01:20;96572.94;;;14.68;58.38
13553;BME280;6847;48.830;9.116;2023-01-15T02:03:47;96564.56;;;14.73;58.49
13553;BME280;6847;48.830;9.116;2023-01-15T02:06:14;96572.06;;;14.76;58.32
13553;BME280;6847;48.830;9.116;2023-01-15T02:08:41;96565.25;;;14.82;58.27
13553;BME280;6847;48.830;9.116;2023-01-15T02:11:15;96542.09;;;14.76;58.29
13553;BME280;6847;48.830;9.116;2023-01-15T02:13:46;96563.47;;;14.86;58.34
13553;BME280;6847;48.830;9.116;2023-01-15T02:16:22;96555.75;;;14.88;58.30
13553;BME280;6847;48.830;9.116;2023-01-15T02:18:55;96477.06;;;14.41;58.15
13553;BME280;6847;48.830;9.116;2023-01-15T02:21:26;96534.19;;;14.95;58.25
13553;BME280;6847;48.830;9.116;2023-01-15T02:24:09;96546.66;;;14.84;58.25
13553;BME280;6847;48.830;9.116;2023-01-15T02:26:56;96548.81;;;14.91;58.42
13553;BME280;6847;48.830;9.116;2023-01-15T02:29:30;96516.19;;;14.70;58.48
13553;BME280;6847;48.830;9.116;2023-01-15T02:32:06;96493.69;;;14.61;58.30
13553;BME280;6847;48.830;9.116;2023-01-15T02:34:42;96427.56;;;14.27;58.26
13553;BME280;6847;48.830;9.116;2023-01-15T02:37:16;96543.63;;;14.98;58.31
13553;BME280;6847;48.830;9.116;2023-01-15T02:39:47;96513.03;;;14.80;58.77
13553;BME280;6847;48.830;9.116;2023-01-15T02:42:20;96538.72;;;15.03;58.39
13553;BME280;6847;48.830;9.116;2023-01-15T02:44:50;96543.63;;;14.98;58.42
13553;BME280;6847;48.830;9.116;2023-01-15T02:47:19;96552.38;;;15.03;58.56
13553;BME280;6847;48.830;9.116;2023-01-15T02:49:48;96545.31;;;15.02;58.55
13553;BME280;6847;48.830;9.116;2023-01-15T02:52:20;96543.16;;;14.96;58.65
13553;BME280;6847;48.830;9.116;2023-01-15T02:54:54;96535.09;;;14.87;58.73
13553;BME280;6847;48.830;9.116;2023-01-15T02:57:25;96547.78;;;14.83;58.72
13553;BME280;6847;48.830;9.116;2023-01-15T02:59:55;96538.00;;;14.82;59.12
13553;BME280;6847;48.830;9.116;2023-01-15T03:02:26;96532.91;;;14.80;59.23
13553;BME280;6847;48.830;9.116;2023-01-15T03:04:56;96533.03;;;14.84;58.81
13553;BME280;6847;48.830;9.116;2023-01-15T03:07:30;96528.59;;;14.92;58.88
13553;BME280;6847;48.830;9.116;2023-01-15T03:09:58;96535.31;;;14.94;58.75
13553;BME280;6847;48.830;9.116;2023-01-15T03:12:29;96521.69;;;14.94;58.92
13553;BME280;6847;48.830;9.116;2023-01-15T03:15:24;96530.34;;;14.96;58.88
13553;BME280;6847;48.830;9.116;2023-01-15T03:18:09;96533.53;;;14.98;58.87
13553;BME280;6847;48.830;9.116;2023-01-15T03:20:42;96517.59;;;15.00;58.65
13553;BME280;6847;48.830;9.116;2023-01-15T03:23:15;96522.72;;;15.02;58.65
13553;BME280;6847;48.830;9.116;2023-01-15T03:25:45;96515.00;;;15.04;58.97
13553;BME280;6847;48.830;9.116;2023-01-15T03:28:20;96508.53;;;14.96;58.83
13553;BME280;6847;48.830;9.116;2023-01-15T03:30:50;96515.56;;;15.09;58.77
13553;BME280;6847;48.830;9.116;2023-01-15T03:33:16;96513.75;;;15.13;58.70
13553;BME280;6847;48.830;9.116;2023-01-15T03:35:50;96507.63;;;15.16;58.43
13553;BME280;6847;48.830;9.116;2023-01-15T03:38:22;96508.53;;;15.21;58.57
13553;BME280;6847;48.830;9.116;2023-01-15T03:40:58;96509.00;;;15.23;58.71
13553;BME280;6847;48.830;9.116;2023-01-15T03:43:51;96490.72;;;15.23;58.59
13553;BME280;6847;48.830;9.116;2023-01-15T03:46:41;96515.56;;;15.22;58.69
13553;BME280;6847;48.830;9.116;2023-01-15T03:49:18;96500.34;;;15.21;58.58
13553;BME280;6847;48.830;9.116;2023-01-15T03:51:55;96492.63;;;15.10;58.58
13553;BME280;6847;48.830;9.116;2023-01-15T03:54:34;96496.28;;;15.27;58.67
13553;BME280;6847;48.830;9.116;2023-01-15T03:57:23;96501.03;;;15.30;58.41
13553;BME280;6847;48.830;9.116;2023-01-15T04:00:01;96507.19;;;15.27;58.61
13553;BME280;6847;48.830;9.116;2023-01-15T04:02:33;96490.03;;;15.26;58.49
13553;BME280;6847;48.830;9.116;2023-01-15T04:05:02;96496.28;;;15.27;58.52
13553;BME280;6847;48.830;9.116;2023-01-15T04:07:31;96462.84;;;15.30;58.54
13553;BME280;6847;48.830;9.116;2023-01-15T04:09:58;96452.88;;;15.09;58.28
13553;BME280;6847;48.830;9.116;2023-01-15T04:12:24;96475.16;;;15.36;58.45
13553;BME280;6847;48.830;9.116;2023-01-15T04:14:52;96477.06;;;15.35;58.31
13553;BME280;6847;48.830;9.116;2023-01-15T04:17:21;96428.72;;;15.08;58.50
13553;BME280;6847;48.830;9.116;2023-01-15T04:19:51;96409.50;;;14.92;58.30
13553;BME280;6847;48.830;9.116;2023-01-15T04:22:19;96443.81;;;15.17;58.29
13553;BME280;6847;48.830;9.116;2023-01-15T04:24:46;96477.41;;;15.34;58.26
13553;BME280;6847;48.830;9.116;2023-01-15T04:27:12;96467.19;;;15.31;58.41
13553;BME280;6847;48.830;9.116;2023-01-15T04:29:39;96314.13;;;14.31;58.34
13553;BME280;6847;48.830;9.116;2023-01-15T04:32:06;96396.94;;;14.88;58.56
13553;BME280;6847;48.830;9.116;2023-01-15T04:34:47;96467.38;;;15.38;58.27
13553;BME280;6847;48.830;9.116;2023-01-15T04:37:16;96459.66;;;15.40;58.27
13553;BME280;6847;48.830;9.116;2023-01-15T04:39:43;96455.00;;;15.40;58.18
13553;BME280;6847;48.830;9.116;2023-01-15T04:42:11;96448.88;;;15.31;58.19
13553;BME280;6847;48.830;9.116;2023-01-15T04:44:55;96468.56;;;15.37;58.25
13553;BME280;6847;48.830;9.116;2023-01-15T04:47:28;96460.13;;;15.30;58.47
13553;BME280;6847;48.830;9.116;2023-01-15T04:49:57;96469.56;;;15.20;58.63
13553;BME280;6847;48.830;9.116;2023-01-15T04:52:27;96399.41;;;14.68;58.74
13553;BME280;6847;48.830;9.116;2023-01-15T04:54:55;96460.38;;;15.00;58.91
13553;BME280;6847;48.830;9.116;2023-01-15T04:57:24;96465.72;;;14.97;59.03
13553;BME280;6847;48.830;9.116;2023-01-15T04:59:53;96467.31;;;14.98;58.88
13553;BME280;6847;48.830;9.116;2023-01-15T05:02:20;96458.91;;;15.03;58.81
13553;BME280;6847;48.830;9.116;2023-01-15T05:04:47;96352.38;;;14.35;59.24
13553;BME280;6847;48.830;9.116;2023-01-15T05:07:17;96479.78;;;14.99;59.07
13553;BME280;6847;48.830;9.116;2023-01-15T05:09:44;96482.63;;;14.90;58.83
13553;BME280;6847;48.830;9.116;2023-01-15T05:12:13;96507.81;;;14.75;58.94
13553;BME280;6847;48.830;9.116;2023-01-15T05:14:39;96542.72;;;14.61;59.14
13553;BME280;6847;48.830;9.116;2023-01-15T05:17:06;96500.88;;;13.91;59.82
13553;BME280;6847;48.830;9.116;2023-01-15T05:19:32;96546.13;;;13.75;60.75
13553;BME280;6847;48.830;9.116;2023-01-15T05:22:01;96577.84;;;13.32;61.51
13553;BME280;6847;48.830;9.116;2023-01-15T05:24:29;96569.97;;;12.93;62.57
13553;BME280;6847;48.830;9.116;2023-01-15T05:26:56;96541.34;;;12.57;62.94
13553;BME280;6847;48.830;9.116;2023-01-15T05:29:22;96539.94;;;12.08;63.39
13553;BME280;6847;48.830;9.116;2023-01-15T05:31:49;96557.47;;;11.85;64.72
13553;BME280;6847;48.830;9.116;2023-01-15T05:34:42;96516.75;;;11.50;65.54
13553;BME280;6847;48.830;9.116;2023-01-15T05:37:11;96596.09;;;11.82;65.44
13553;BME280;6847;48.830;9.116;2023-01-15T05:39:41;96592.66;;;11.68;66.65
13553;BME280;6847;48.830;9.116;2023-01-15T05:42:07;96603.50;;;11.59;67.00
13553;BME280;6847;48.830;9.116;2023-01-15T05:44:37;96528.25;;;11.08;66.88
13553;BME280;6847;48.830;9.116;2023-01-15T05:47:03;96603.28;;;11.38;66.72
13553;BME280;6847;48.830;9.116;2023-01-15T05:49:32;96596.41;;;11.32;67.22
13553;BME280;6847;48.830;9.116;2023-01-15T05:52:00;96574.78;;;11.10;67.83
13553;BME280;6847;48.830;9.116;2023-01-15T05:54:30;96599.38;;;11.22;67.20
13553;BME280;6847;48.830;9.116;2023-01-15T05:57:02;96616.91;;;11.16;68.24
13553;BME280;6847;48.830;9.116;2023-01-15T05:59:30;96620.34;;;11.08;68.65
13553;BME280;6847;48.830;9.116;2023-01-15T06:01:58;96503.22;;;10.32;68.10
13553;BME280;6847;48.830;9.116;2023-01-15T06:04:24;96607.56;;;11.00;68.23
13553;BME280;6847;48.830;9.116;2023-01-15T06:06:53;96600.00;;;10.88;68.49
13553;BME280;6847;48.830;9.116;2023-01-15T06:09:19;96621.84;;;10.92;68.50
13553;BME280;6847;48.830;9.116;2023-01-15T06:11:47;96564.44;;;10.50;68.56
13553;BME280;6847;48.830;9.116;2023-01-15T06:14:15;96633.94;;;10.86;68.35
13553;BME280;6847;48.830;9.116;2023-01-15T06:16:43;96630.72;;;10.84;68.19
13553;BME280;6847;48.830;9.116;2023-01-15T06:19:12;96641.56;;;10.84;68.51
13553;BME280;6847;48.830;9.116;2023-01-15T06:21:39;96654.59;;;10.82;68.95
13553;BME280;6847;48.830;9.116;2023-01-15T06:24:06;96595.66;;;10.48;68.47
13553;BME280;6847;48.830;9.116;2023-01-15T06:26:33;96568.28;;;10.27;68.96
13553;BME280;6847;48.830;9.116;2023-01-15T06:29:00;96658.06;;;10.73;69.51
13553;BME280;6847;48.830;9.116;2023-01-15T06:31:28;96674.91;;;10.70;69.42
13553;BME280;6847;48.830;9.116;2023-01-15T06:33:55;96676.66;;;10.66;69.63
13553;BME280;6847;48.830;9.116;2023-01-15T06:36:23;96679.16;;;10.63;68.99
13553;BME280;6847;48.830;9.116;2023-01-15T06:38:50;96685.97;;;10.60;69.47
13553;BME280;6847;48.830;9.116;2023-01-15T06:41:18;96685.00;;;10.56;69.10
13553;BME280;6847;48.830;9.116;2023-01-15T06:44:04;96638.81;;;10.17;69.84
13553;BME280;6847;48.830;9.116;2023-01-15T06:46:50;96657.31;;;10.10;70.19
13553;BME280;6847;48.830;9.116;2023-01-15T06:50:05;96707.72;;;10.33;69.78
13553;BME280;6847;48.830;9.116;2023-01-15T06:52:32;96702.69;;;10.13;70.07
13553;BME280;6847;48.830;9.116;2023-01-15T06:55:00;96727.97;;;10.08;69.37
13553;BME280;6847;48.830;9.116;2023-01-15T06:57:26;96727.03;;;9.99;69.92
13553;BME280;6847;48.830;9.116;2023-01-15T06:59:53;96699.03;;;9.81;69.87
13553;BME280;6847;48.830;9.116;2023-01-15T07:02:23;96734.16;;;9.81;70.08
13553;BME280;6847;48.830;9.116;2023-01-15T07:04:50;96750.78;;;9.75;70.16
13553;BME280;6847;48.830;9.116;2023-01-15T07:07:18;96748.97;;;9.70;69.66
13553;BME280;6847;48.830;9.116;2023-01-15T07:09:45;96771.78;;;9.64;70.25
13553;BME280;6847;48.830;9.116;2023-01-15T07:12:12;96774.59;;;9.59;70.43
13553;BME280;6847;48.830;9.116;2023-01-15T07:14:38;96775.19;;;9.56;70.25
13553;BME280;6847;48.830;9.116;2023-01-15T07:17:05;96783.38;;;9.51;70.56
13553;BME280;6847;48.830;9.116;2023-01-15T07:19:48;96782.38;;;9.47;69.77
13553;BME280;6847;48.830;9.116;2023-01-15T07:22:24;96379.34;;;6.88;70.40
13553;BME280;6847;48.830;9.116;2023-01-15T07:24:54;96724.41;;;8.93;70.37
13553;BME280;6847;48.830;9.116;2023-01-15T07:27:21;96761.28;;;9.16;70.63
13553;BME280;6847;48.830;9.116;2023-01-15T07:29:49;96688.13;;;8.67;70.92
13553;BME280;6847;48.830;9.116;2023-01-15T07:32:18;96799.16;;;9.30;70.91
13553;BME280;6847;48.830;9.116;2023-01-15T07:34:46;96796.22;;;9.26;70.36
13553;BME280;6847;48.830;9.116;2023-01-15T07:37:13;96801.09;;;9.24;70.45
13553;BME280;6847;48.830;9.116;2023-01-15T07:39:39;96742.38;;;8.84;70.90
13553;BME280;6847;48.830;9.116;2023-01-15T07:42:10;96797.41;;;9.20;70.82
13553;BME280;6847;48.830;9.116;2023-01-15T07:44:54;96461.50;;;6.99;70.48
13553;BME280;6847;48.830;9.116;2023-01-15T07:47:39;96684.00;;;8.37;70.71
13553;BME280;6847;48.830;9.116;2023-01-15T07:50:31;96781.22;;;9.02;71.24
13553;BME280;6847;48.830;9.116;2023-01-15T07:52:59;96803.47;;;9.12;71.32
13553;BME280;6847;48.830;9.116;2023-01-15T07:55:26;96811.06;;;9.10;71.36
13553;BME280;6847;48.830;9.116;2023-01-15T07:57:54;96782.78;;;8.89;71.07
13553;BME280;6847;48.830;9.116;2023-01-15T08:00:32;96512.22;;;7.11;70.82
13553;BME280;6847;48.830;9.116;2023-01-15T08:02:59;96842.34;;;9.11;71.17
13553;BME280;6847;48.830;9.116;2023-01-15T08:05:29;96841.25;;;9.12;71.40
13553;BME280;6847;48.830;9.116;2023-01-15T08:11:43;96348.88;;;5.84;70.64
13553;BME280;6847;48.830;9.116;2023-01-15T08:17:35;96876.88;;;9.14;71.25
13553;BME280;6847;48.830;9.116;2023-01-15T08:20:04;96868.78;;;9.14;71.02
13553;BME280;6847;48.830;9.116;2023-01-15T08:22:42;96836.16;;;8.92;70.87
13553;BME280;6847;48.830;9.116;2023-01-15T08:25:16;96873.09;;;9.15;71.34
13553;BME280;6847;48.830;9.116;2023-01-15T08:28:06;96842.81;;;9.00;71.22
13553;BME280;6847;48.830;9.116;2023-01-15T08:30:45;96824.34;;;8.88;71.07
13553;BME280;6847;48.830;9.116;2023-01-15T08:33:17;96770.00;;;8.38;71.26
13553;BME280;6847;48.830;9.116;2023-01-15T08:35:45;96683.53;;;7.68;70.71
13553;BME280;6847;48.830;9.116;2023-01-15T08:38:18;96903.22;;;9.04;70.97
13553;BME280;6847;48.830;9.116;2023-01-15T08:40:45;96780.63;;;8.30;71.14
13553;BME280;6847;48.830;9.116;2023-01-15T08:43:31;96818.94;;;8.50;71.27
13553;BME280;6847;48.830;9.116;2023-01-15T08:46:00;96777.66;;;8.31;71.45
13553;BME280;6847;48.830;9.116;2023-01-15T08:48:34;96911.59;;;9.02;71.65
13553;BME280;6847;48.830;9.116;2023-01-15T08:51:04;96782.69;;;8.14;70.94
13553;BME280;6847;48.830;9.116;2023-01-15T08:53:37;96910.06;;;8.96;71.46
13553;BME280;6847;48.830;9.116;2023-01-15T08:56:11;96802.50;;;8.23;71.43
13553;BME280;6847;48.830;9.116;2023-01-15T08:58:43;96891.53;;;8.71;70.87
13553;BME280;6847;48.830;9.116;2023-01-15T09:01:11;96928.97;;;8.96;71.13
13553;BME280;6847;48.830;9.116;2023-01-15T09:03:40;96948.16;;;8.95;71.31
13553;BME280;6847;48.830;9.116;2023-01-15T09:06:08;96943.56;;;8.95;71.37
13553;BME280;6847;48.830;9.116;2023-01-15T09:08:41;96945.88;;;9.02;71.25
13553;BME280;6847;48.830;9.116;2023-01-15T09:11:11;96942.38;;;9.01;71.42
13553;BME280;6847;48.830;9.116;2023-01-15T09:13:53;96661.09;;;7.30;71.27
13553;BME280;6847;48.830;9.116;2023-01-15T09:16:42;96951.47;;;9.10;71.34
13553;BME280;6847;48.830;9.116;2023-01-15T09:19:10;96806.78;;;8.05;71.06
13553;BME280;6847;48.830;9.116;2023-01-15T09:21:45;96958.25;;;9.08;71.79
13553;BME280;6847;48.830;9.116;2023-01-15T09:24:15;96736.84;;;7.71;71.80
13553;BME280;6847;48.830;9.116;2023-01-15T09:26:48;96892.94;;;8.63;71.23
13553;BME280;6847;48.830;9.116;2023-01-15T09:29:19;96986.94;;;9.22;71.47
13553;BME280;6847;48.830;9.116;2023-01-15T09:31:49;97013.38;;;9.25;71.43
13553;BME280;6847;48.830;9.116;2023-01-15T09:34:34;97015.53;;;9.23;71.62
13553;BME280;6847;48.830;9.116;2023-01-15T09:37:01;97007.53;;;9.18;71.18
13553;BME280;6847;48.830;9.116;2023-01-15T09:39:43;96975.81;;;9.05;71.67
13553;BME280;6847;48.830;9.116;2023-01-15T09:42:30;96776.88;;;7.83;71.35
13553;BME280;6847;48.830;9.116;2023-01-15T09:45:19;97002.88;;;9.43;71.96
13553;BME280;6847;48.830;9.116;2023-01-15T09:48:04;96980.16;;;9.25;71.32
13553;BME280;6847;48.830;9.116;2023-01-15T09:50:44;97008.41;;;9.33;71.29
13553;BME280;6847;48.830;9.116;2023-01-15T09:53:31;96827.94;;;8.17;71.41
13553;BME280;6847;48.830;9.116;2023-01-15T09:56:09;97031.50;;;9.44;71.40
13553;BME280;6847;48.830;9.116;2023-01-15T09:58:41;97019.81;;;9.30;71.32
13553;BME280;6847;48.830;9.116;2023-01-15T10:01:14;97013.50;;;9.15;71.18
13553;BME280;6847;48.830;9.116;2023-01-15T10:04:02;97013.63;;;9.05;70.95
13553;BME280;6847;48.830;9.116;2023-01-15T10:06:40;96841.56;;;7.78;71.03
13553;BME280;6847;48.830;9.116;2023-01-15T10:09:17;97065.84;;;9.19;71.45
13553;BME280;6847;48.830;9.116;2023-01-15T10:12:12;96905.56;;;8.20;71.17
13553;BME280;6847;48.830;9.116;2023-01-15T10:15:01;96975.28;;;8.61;71.83
13553;BME280;6847;48.830;9.116;2023-01-15T10:17:38;97077.50;;;9.15;71.47
13553;BME280;6847;48.830;9.116;2023-01-15T10:20:12;97040.16;;;8.98;71.52
13553;BME280;6847;48.830;9.116;2023-01-15T10:23:02;97053.03;;;9.06;71.45
13553;BME280;6847;48.830;9.116;2023-01-15T10:25:50;97083.94;;;9.19;71.47
13553;BME280;6847;48.830;9.116;2023-01-15T10:28:28;96900.03;;;8.06;71.28
13553;BME280;6847;48.830;9.116;2023-01-15T10:31:05;97095.66;;;9.09;71.74
13553;BME280;6847;48.830;9.116;2023-01-15T10:33:48;97099.22;;;9.05;71.27
13553;BME280;6847;48.830;9.116;2023-01-15T10:36:22;96985.31;;;8.26;71.50
13553;BME280;6847;48.830;9.116;2023-01-15T10:39:11;97068.75;;;8.75;71.38
13553;BME280;6847;48.830;9.116;2023-01-15T10:42:08;97105.06;;;8.88;71.75
13553;BME280;6847;48.830;9.116;2023-01-15T10:44:48;96906.22;;;7.49;71.24
13553;BME280;6847;48.830;9.116;2023-01-15T10:50:19;96820.22;;;6.51;70.83
13553;BME280;6847;48.830;9.116;2023-01-15T10:52:52;96928.06;;;7.03;71.11
13553;BME280;6847;48.830;9.116;2023-01-15T10:55:25;96894.00;;;6.79;72.19
13553;BME280;6847;48.830;9.116;2023-01-15T10:58:01;97139.53;;;8.28;71.77
13553;BME280;6847;48.830;9.116;2023-01-15T11:00:38;96952.22;;;7.14;71.43
13553;BME280;6847;48.830;9.116;2023-01-15T11:03:12;96946.59;;;7.10;71.60
13553;BME280;6847;48.830;9.116;2023-01-15T11:05:46;97116.47;;;8.07;71.71
13553;BME280;6847;48.830;9.116;2023-01-15T11:08:30;97131.63;;;8.03;71.63
13553;BME280;6847;48.830;9.116;2023-01-15T11:11:08;97134.28;;;8.08;71.74
13553;BME280;6847;48.830;9.116;2023-01-15T11:13:54;97015.09;;;7.33;71.63
13553;BME280;6847;48.830;9.116;2023-01-15T11:16:42;97153.72;;;8.00;72.02
13553;BME280;6847;48.830;9.116;2023-01-15T11:19:32;97005.03;;;6.99;71.64
13553;BME280;6847;48.830;9.116;2023-01-15T11:22:25;97073.78;;;7.36;71.63
13553;BME280;6847;48.830;9.116;2023-01-15T11:25:08;96914.38;;;6.36;71.48
13553;BME280;6847;48.830;9.116;2023-01-15T11:27:39;96953.31;;;6.43;71.48
13553;BME280;6847;48.830;9.116;2023-01-15T11:30:26;97167.63;;;7.68;71.30
13553;BME280;6847;48.830;9.116;2023-01-15T11:32:56;97145.66;;;7.40;71.77
13553;BME280;6847;48.830;9.116;2023-01-15T11:35:24;97187.09;;;7.50;71.86
13553;BME280;6847;48.830;9.116;2023-01-15T11:38:04;97089.00;;;6.91;71.86
13553;BME280;6847;48.830;9.116;2023-01-15T11:40:32;97122.31;;;7.05;72.22
13553;BME280;6847;48.830;9.116;2023-01-15T11:43:02;97167.47;;;7.39;72.16
13553;BME280;6847;48.830;9.116;2023-01-15T11:45:48;97130.38;;;7.21;72.29
13553;BME280;6847;48.830;9.116;2023-01-15T11:48:42;97141.66;;;7.28;72.16
13553;BME280;6847;48.830;9.116;2023-01-15T11:51:43;97011.94;;;6.46;72.47
13553;BME280;6847;48.830;9.116;2023-01-15T11:54:14;97120.72;;;7.10;72.11
13553;BME280;6847;48.830;9.116;2023-01-15T11:56:46;96990.47;;;6.16;72.09
13553;BME280;6847;48.830;9.116;2023-01-15T11:59:17;97028.31;;;6.40;72.48
13553;BME280;6847;48.830;9.116;2023-01-15T12:01:51;97024.56;;;6.30;72.06
13553;BME280;6847;48.830;9.116;2023-01-15T12:04:34;96943.72;;;5.86;72.34
13553;BME280;6847;48.830;9.116;2023-01-15T12:07:04;96960.66;;;5.87;72.12
13553;BME280;6847;48.830;9.116;2023-01-15T12:09:56;97131.50;;;6.99;72.88
13553;BME280;6847;48.830;9.116;2023-01-15T12:12:37;97159.44;;;7.19;72.52
13553;BME280;6847;48.830;9.116;2023-01-15T12:15:18;97146.84;;;7.04;72.29
13553;BME280;6847;48.830;9.116;2023-01-15T12:18:10;97168.34;;;7.14;72.37
13553;BME280;6847;48.830;9.116;2023-01-15T12:20:56;97134.72;;;6.96;72.42
13553;BME280;6847;48.830;9.116;2023-01-15T12:23:42;96905.88;;;5.52;72.54
13553;BME280;6847;48.830;9.116;2023-01-15T12:26:19;96973.56;;;5.90;72.58
13553;BME280;6847;48.830;9.116;2023-01-15T12:29:01;97034.81;;;6.34;72.58
13553;BME280;6847;48.830;9.116;2023-01-15T12:31:36;97123.44;;;6.99;72.50
13553;BME280;6847;48.830;9.116;2023-01-15T12:34:15;96911.78;;;5.75;72.63
13553;BME280;6847;48.830;9.116;2023-01-15T12:36:53;97025.63;;;6.55;72.40
13553;BME280;6847;48.830;9.116;2023-01-15T12:39:26;97127.94;;;7.19;72.34
13553;BME280;6847;48.830;9.116;2023-01-15T12:42:02;97143.81;;;7.26;72.73
13553;BME280;6847;48.830;9.116;2023-01-15T12:44:52;96909.06;;;5.80;72.72
13553;BME280;6847;48.830;9.116;2023-01-15T12:47:38;97125.00;;;7.16;72.81
13553;BME280;6847;48.830;9.116;2023-01-15T12:50:27;96937.03;;;6.04;72.64
13553;BME280;6847;48.830;9.116;2023-01-15T12:53:08;97087.91;;;6.97;72.25
13553;BME280;6847;48.830;9.116;2023-01-15T12:55:45;97164.75;;;7.49;72.44
13553;BME280;6847;48.830;9.116;2023-01-15T12:58:26;96888.94;;;5.82;72.35
13553;BME280;6847;48.830;9.116;2023-01-15T13:01:03;97169.00;;;7.60;72.28
13553;BME280;6847;48.830;9.116;2023-01-15T13:03:45;96879.00;;;5.73;71.85
13553;BME280;6847;48.830;9.116;2023-01-15T13:06:16;97148.63;;;7.39;72.37
13553;BME280;6847;48.830;9.116;2023-01-15T13:08:55;97069.63;;;6.99;72.31
13553;BME280;6847;48.830;9.116;2023-01-15T13:11:29;96900.75;;;6.07;72.28
13553;BME280;6847;48.830;9.116;2023-01-15T13:14:01;97141.50;;;7.68;71.73
13553;BME280;6847;48.830;9.116;2023-01-15T13:16:42;97191.47;;;8.00;71.87
13553;BME280;6847;48.830;9.116;2023-01-15T13:19:27;97152.72;;;7.86;71.90
13553;BME280;6847;48.830;9.116;2023-01-15T13:22:06;97121.56;;;7.64;71.65
13553;BME280;6847;48.830;9.116;2023-01-15T13:25:20;97011.97;;;7.11;71.42
13553;BME280;6847;48.830;9.116;2023-01-15T13:28:06;97028.09;;;7.21;71.00
13553;BME280;6847;48.830;9.116;2023-01-15T13:30:49;97011.66;;;7.17;71.12
13553;BME280;6847;48.830;9.116;2023-01-15T13:33:30;97199.66;;;8.29;70.88
13553;BME280;6847;48.830;9.116;2023-01-15T13:36:25;97042.53;;;7.40;70.91
13553;BME280;6847;48.830;9.116;2023-01-15T13:39:01;97098.97;;;8.04;71.22
13553;BME280;6847;48.830;9.116;2023-01-15T13:41:37;97210.00;;;9.23;71.49
13553;BME280;6847;48.830;9.116;2023-01-15T13:44:23;97015.22;;;8.59;71.23
13553;BME280;6847;48.830;9.116;2023-01-15T13:47:09;97054.84;;;9.35;71.05
13553;BME280;6847;48.830;9.116;2023-01-15T13:49:47;97152.09;;;10.20;70.17
13553;BME280;6847;48.830;9.116;2023-01-15T13:52:25;97090.22;;;10.18;70.22
13553;BME280;6847;48.830;9.116;2023-01-15T13:54:58;97154.78;;;10.76;69.49
13553;BME280;6847;48.830;9.116;2023-01-15T13:57:41;96960.94;;;9.64;69.68
13553;BME280;6847;48.830;9.116;2023-01-15T14:00:32;96994.19;;;10.16;69.70
13553;BME280;6847;48.830;9.116;2023-01-15T14:03:28;97055.38;;;10.63;68.55